Time;durP1;ratioP1;P1;durP2;ratioP2;P2;SDS_P1;SDS_P2;PMS_P1;PMS_P2;Temp;Humidity;BMP_temperature;BMP_pressure;BME280_temperature;BME280_humidity;BME280_pressure;Samples;Min_cycle;Max_cycle;Signal;HPM_P1;HPM_P2
2022/10/20 00:00:47;;;;;;;8.35;7.68;;;;;;;11.21;82.80;100062.42;461196;115;923493;-76
2022/10/20 00:01:50;;;;;;;7.44;6.94;;;;;;;11.20;82.91;100073.55;461197;115;923028;-76
2022/10/20 00:02:53;;;;;;;7.33;6.85;;;;;;;11.20;82.94;100065.38;461174;115;922781;-76
2022/10/20 00:03:56;;;;;;;6.81;6.41;;;;;;;11.19;82.91;100067.27;461116;115;922562;-77
2022/10/20 00:04:59;;;;;;;7.28;6.78;;;;;;;11.18;83.01;100062.06;461116;115;923006;-76
2022/10/20 00:06:10;;;;;;;7.57;7.07;;;;;;;11.19;82.99;100066.46;461214;115;922918;-76
2022/10/20 00:07:13;;;;;;;6.95;6.48;;;;;;;11.20;83.11;100062.64;461008;115;923057;-76
2022/10/20 00:08:16;;;;;;;6.69;6.29;;;;;;;11.22;83.15;100065.98;461234;115;923056;-76
2022/10/20 00:09:19;;;;;;;6.73;6.28;;;;;;;11.22;83.09;100055.91;461190;115;922520;-76
2022/10/20 00:10:22;;;;;;;6.74;6.22;;;;;;;11.22;83.02;100064.09;461190;115;922624;-76
2022/10/20 00:11:26;;;;;;;6.42;5.92;;;;;;;11.22;83.08;100065.98;461217;115;922603;-76
2022/10/20 00:12:29;;;;;;;7.29;6.85;;;;;;;11.22;83.09;100058.63;461100;115;922459;-75
2022/10/20 00:13:32;;;;;;;6.32;5.92;;;;;;;11.23;83.08;100057.58;452158;117;923046;-76
2022/10/20 00:14:35;;;;;;;6.47;6.01;;;;;;;11.23;83.05;100057.58;452422;115;922710;-77
2022/10/20 00:15:38;;;;;;;6.11;5.72;;;;;;;11.24;83.03;100067.43;461185;115;922509;-76
2022/10/20 00:16:41;;;;;;;6.03;5.63;;;;;;;11.24;83.01;100067.43;465240;114;922678;-77
2022/10/20 00:17:45;;;;;;;5.87;5.49;;;;;;;11.26;82.99;100059.83;465432;114;922557;-75
2022/10/20 00:18:48;;;;;;;5.55;5.18;;;;;;;11.26;82.98;100061.72;465286;114;922944;-76
2022/10/20 00:19:51;;;;;;;6.36;5.96;;;;;;;11.27;83.04;100052.47;465425;114;922501;-76
2022/10/20 00:20:54;;;;;;;5.27;4.89;;;;;;;11.28;82.93;100054.14;465421;114;922603;-76
2022/10/20 00:21:57;;;;;;;5.82;5.52;;;;;;;11.28;82.88;100049.52;465424;114;922915;-76
2022/10/20 00:23:00;;;;;;;5.74;5.36;;;;;;;11.28;82.95;100052.25;465402;114;923022;-77
2022/10/20 00:24:03;;;;;;;5.17;4.87;;;;;;;11.29;82.88;100043.00;465410;114;922919;-77
2022/10/20 00:25:06;;;;;;;5.05;4.74;;;;;;;11.30;82.92;100041.11;465377;114;922847;-77
2022/10/20 00:26:15;;;;;;;5.19;4.84;;;;;;;11.31;82.95;100045.48;465332;114;923492;-76
2022/10/20 00:27:19;;;;;;;4.96;4.66;;;;;;;11.33;82.95;100051.55;465228;114;922525;-75
2022/10/20 00:28:23;;;;;;;5.24;4.93;;;;;;;11.34;82.93;100050.48;465303;114;922419;-76
2022/10/20 00:29:25;;;;;;;4.33;4.03;;;;;;;11.34;82.88;100047.76;465446;114;922547;-75
2022/10/20 00:30:28;;;;;;;5.33;4.87;;;;;;;11.37;82.88;100051.91;456917;114;922911;-76
2022/10/20 00:31:31;;;;;;;4.77;4.23;;;;;;;11.38;82.82;100051.67;447719;118;922556;-76
2022/10/20 00:32:34;;;;;;;4.49;4.19;;;;;;;11.38;82.75;100048.95;465419;114;923054;-76
2022/10/20 00:33:39;;;;;;;4.32;3.99;;;;;;;11.38;82.76;100048.11;465830;112;923008;-75
2022/10/20 00:34:42;;;;;;;4.79;4.49;;;;;;;11.38;82.66;100046.22;471250;112;922459;-76
2022/10/20 00:35:45;;;;;;;4.32;4.02;;;;;;;11.38;82.60;100045.38;471300;112;930476;-77
2022/10/20 00:36:48;;;;;;;4.46;4.16;;;;;;;11.38;82.70;100042.66;471352;112;922556;-76
2022/10/20 00:37:53;;;;;;;4.28;3.98;;;;;;;11.38;82.67;100040.76;471202;112;922959;-76
2022/10/20 00:39:00;;;;;;;3.91;3.63;;;;;;;11.39;82.63;100034.23;471341;112;923047;-76
2022/10/20 00:40:04;;;;;;;4.56;4.25;;;;;;;11.41;82.66;100050.39;471183;112;922528;-76
2022/10/20 00:41:11;;;;;;;4.41;4.11;;;;;;;11.41;82.58;100039.48;471233;112;922764;-77
2022/10/20 00:42:15;;;;;;;3.33;3.13;;;;;;;11.42;82.62;100041.11;471193;112;923493;-77
2022/10/20 00:43:18;;;;;;;3.79;3.53;;;;;;;11.43;82.57;100035.43;470627;112;922544;-76
2022/10/20 00:44:47;;;;;;;4.27;3.98;;;;;;;11.42;82.55;100033.76;470430;112;922635;-77
2022/10/20 00:45:56;;;;;;;3.54;3.34;;;;;;;11.44;82.42;100036.27;470156;112;922463;-77
2022/10/20 00:47:00;;;;;;;3.96;3.69;;;;;;;11.44;82.46;100036.27;470201;112;922574;-76
2022/10/20 00:48:09;;;;;;;4.11;3.79;;;;;;;11.43;82.45;100035.43;470281;112;922505;-75
2022/10/20 00:49:18;;;;;;;3.80;3.53;;;;;;;11.44;82.37;100036.27;469631;112;930634;-76
2022/10/20 00:50:34;;;;;;;4.05;3.82;;;;;;;11.43;82.35;100035.43;469996;112;922918;-77
2022/10/20 00:51:37;;;;;;;3.09;2.89;;;;;;;11.42;82.34;100041.95;469012;112;922836;-76
2022/10/20 00:52:42;;;;;;;4.26;3.96;;;;;;;11.43;82.30;100037.33;465349;114;922604;-77
2022/10/20 00:53:48;;;;;;;3.73;3.43;;;;;;;11.44;82.30;100041.72;465163;114;928087;-76
2022/10/20 00:54:51;;;;;;;3.99;3.69;;;;;;;11.44;82.33;100042.56;465151;114;922977;-77
2022/10/20 00:55:56;;;;;;;3.92;3.66;;;;;;;11.45;82.28;100040.66;465336;114;922828;-76
2022/10/20 00:56:59;;;;;;;4.47;3.48;;;;;;;11.45;82.32;100043.39;465187;114;922480;-76
2022/10/20 00:58:03;;;;;;;4.32;4.06;;;;;;;11.46;82.23;100039.61;465382;114;923518;-77
2022/10/20 00:59:06;;;;;;;3.44;3.14;;;;;;;11.45;82.21;100040.66;465333;113;922667;-76
2022/10/20 01:00:10;;;;;;;3.39;3.19;;;;;;;11.47;82.14;100041.24;465242;114;930490;-76
2022/10/20 01:01:14;;;;;;;4.11;3.81;;;;;;;11.47;82.12;100036.62;465316;114;922572;-77
2022/10/20 01:02:17;;;;;;;3.34;3.04;;;;;;;11.48;82.05;100035.56;465382;114;930645;-76
2022/10/20 01:03:23;;;;;;;4.05;3.75;;;;;;;11.49;81.99;100039.95;465357;114;922464;-78
2022/10/20 01:04:29;;;;;;;3.20;3.00;;;;;;;11.50;82.00;100043.52;465164;114;922476;-76
2022/10/20 01:05:32;;;;;;;3.68;3.40;;;;;;;11.50;82.03;100035.33;465158;114;923094;-76
2022/10/20 01:06:35;;;;;;;3.34;3.14;;;;;;;11.51;81.95;100031.55;465362;114;923103;-76
2022/10/20 01:07:38;;;;;;;3.61;3.03;;;;;;;11.51;81.96;100037.84;465391;114;922577;-76
2022/10/20 01:08:42;;;;;;;3.73;3.37;;;;;;;11.52;81.96;100034.02;465278;113;923126;-76
2022/10/20 01:09:45;;;;;;;3.41;3.16;;;;;;;11.54;82.00;100036.52;465299;114;930518;-76
2022/10/20 01:10:54;;;;;;;3.67;3.42;;;;;;;11.56;81.94;100035.23;465403;114;923482;-76
2022/10/20 01:12:10;;;;;;;3.63;3.43;;;;;;;11.58;81.96;100032.24;464775;114;922872;-76
2022/10/20 01:13:25;;;;;;;3.76;3.46;;;;;;;11.60;81.90;100030.13;465246;114;922610;-75
2022/10/20 01:14:56;;;;;;;3.26;3.06;;;;;;;11.61;81.95;100031.80;465220;113;922640;-77
2022/10/20 01:16:12;;;;;;;4.29;3.92;;;;;;;11.62;81.86;100036.20;465317;114;922516;-77
2022/10/20 01:17:36;;;;;;;3.45;3.21;;;;;;;11.63;81.85;100029.67;465230;114;922663;-76
2022/10/20 01:18:54;;;;;;;3.59;3.39;;;;;;;11.63;81.81;100035.94;464719;114;923070;-77
2022/10/20 01:20:27;;;;;;;3.70;3.40;;;;;;;11.64;81.72;100037.61;465231;114;922559;-76
2022/10/20 01:21:51;;;;;;;4.81;4.51;;;;;;;11.63;81.77;100035.13;465231;114;922591;-76
2022/10/20 01:23:10;;;;;;;3.85;3.56;;;;;;;11.64;81.68;100040.34;463807;114;923045;-76
2022/10/20 01:24:31;;;;;;;4.12;3.84;;;;;;;11.62;81.65;100037.03;465224;114;922546;-76
2022/10/20 01:25:50;;;;;;;4.11;3.81;;;;;;;11.63;81.67;100037.86;463932;114;923330;-77
2022/10/20 01:27:02;;;;;;;3.77;3.49;;;;;;;11.63;81.72;100040.59;465224;114;922485;-77
2022/10/20 01:28:17;;;;;;;4.53;4.19;;;;;;;11.64;81.68;100039.50;447904;118;923385;-76
2022/10/20 01:29:30;;;;;;;4.48;4.14;;;;;;;11.64;81.63;100039.50;465047;114;922970;-77
2022/10/20 01:30:36;;;;;;;6.80;3.96;;;;;;;11.65;81.64;100035.71;447913;118;923381;-77
2022/10/20 01:31:45;;;;;;;5.14;4.74;;;;;;;11.65;81.71;100036.55;457717;114;922795;-76
2022/10/20 01:33:14;;;;;;;4.83;4.47;;;;;;;11.66;81.66;100038.22;465226;114;922741;-77
2022/10/20 01:34:39;;;;;;;4.28;3.98;;;;;;;11.68;81.66;100035.25;465170;113;922808;-80
2022/10/20 01:36:03;;;;;;;5.01;4.71;;;;;;;11.69;81.57;100043.19;465174;114;922846;-77
2022/10/20 01:37:25;;;;;;;4.34;4.01;;;;;;;11.69;81.58;100039.63;464966;114;922991;-77
2022/10/20 01:38:36;;;;;;;4.21;3.89;;;;;;;11.69;81.49;100036.89;461314;114;922465;-77
2022/10/20 01:39:43;;;;;;;4.22;3.94;;;;;;;11.69;81.46;100039.63;464817;113;923024;-75
2022/10/20 01:41:04;;;;;;;3.83;3.53;;;;;;;11.69;81.57;100040.46;463910;114;922701;-76
2022/10/20 01:42:10;;;;;;;3.77;3.47;;;;;;;11.70;81.45;100038.56;465153;114;922529;-77
2022/10/20 01:43:16;;;;;;;3.88;3.62;;;;;;;11.71;81.49;100043.80;464971;114;922853;-77
2022/10/20 01:44:22;;;;;;;3.82;3.52;;;;;;;11.70;81.37;100042.12;465120;113;922985;-76
2022/10/20 01:45:28;;;;;;;3.73;3.43;;;;;;;11.71;81.35;100042.97;465140;114;923034;-76
2022/10/20 01:46:32;;;;;;;3.90;3.60;;;;;;;11.70;81.36;100042.12;465164;114;922859;-77
2022/10/20 01:47:37;;;;;;;3.74;3.46;;;;;;;11.71;81.20;100038.34;465188;114;923053;-77
2022/10/20 01:48:41;;;;;;;3.85;3.58;;;;;;;11.73;81.19;100037.27;465119;113;930506;-76
2022/10/20 01:49:46;;;;;;;3.66;3.46;;;;;;;11.73;81.14;100045.47;465283;114;923109;-77
2022/10/20 01:50:50;;;;;;;3.80;3.53;;;;;;;11.72;81.00;100047.37;465073;114;930690;-77
2022/10/20 01:51:54;;;;;;;4.31;3.99;;;;;;;11.73;80.94;100050.93;464337;114;922733;-77
2022/10/20 01:52:57;;;;;;;3.36;3.15;;;;;;;11.73;80.92;100045.47;462967;114;922965;-77
2022/10/20 01:54:00;;;;;;;3.46;3.22;;;;;;;11.73;80.95;100045.47;462903;114;923070;-75
2022/10/20 01:55:12;;;;;;;3.37;3.14;;;;;;;11.73;80.97;100050.93;462963;114;930483;-76
2022/10/20 01:56:20;;;;;;;3.33;3.13;;;;;;;11.71;80.98;100049.27;462841;114;922503;-76
2022/10/20 01:57:50;;;;;;;3.79;3.58;;;;;;;11.71;80.93;100051.99;462847;114;923205;-76
2022/10/20 01:59:05;;;;;;;3.08;2.88;;;;;;;11.72;80.92;100052.83;462550;114;922628;-75
2022/10/20 02:00:16;;;;;;;4.01;3.51;;;;;;;11.70;80.96;100052.22;445583;118;923252;-76
2022/10/20 02:01:28;;;;;;;3.76;3.49;;;;;;;11.69;81.00;100056.01;460560;114;923053;-77
2022/10/20 02:02:55;;;;;;;3.98;3.68;;;;;;;11.69;81.02;100056.84;462821;114;930514;-78
2022/10/20 02:04:01;;;;;;;4.51;4.21;;;;;;;11.68;80.99;100054.37;462803;114;922940;-76
2022/10/20 02:05:07;;;;;;;4.16;3.87;;;;;;;11.67;80.95;100059.00;462834;114;922542;-78
2022/10/20 02:06:37;;;;;;;3.84;3.64;;;;;;;11.66;80.97;100065.52;457167;114;922441;-77
2022/10/20 02:07:42;;;;;;;3.64;3.37;;;;;;;11.65;81.02;100055.66;462910;114;922564;-76
2022/10/20 02:09:00;;;;;;;4.03;3.75;;;;;;;11.65;81.07;100055.66;462916;114;922945;-78
2022/10/20 02:10:25;;;;;;;4.24;3.93;;;;;;;11.64;81.00;100062.19;462489;114;922492;-76
2022/10/20 02:11:50;;;;;;;4.33;3.98;;;;;;;11.63;81.00;100068.70;451682;114;922773;-78
2022/10/20 02:12:56;;;;;;;3.87;3.67;;;;;;;11.63;81.02;100065.17;444732;118;923187;-76
2022/10/20 02:14:01;;;;;;;3.96;3.76;;;;;;;11.62;81.01;100060.77;444702;119;922842;-77
2022/10/20 02:15:07;;;;;;;4.03;3.77;;;;;;;11.61;81.05;100070.02;444724;119;923105;-77
2022/10/20 02:16:14;;;;;;;3.72;3.46;;;;;;;11.61;81.05;100070.02;463769;114;922469;-76
2022/10/20 02:17:19;;;;;;;4.38;4.08;;;;;;;11.60;80.99;100074.65;464997;114;922546;-77
2022/10/20 02:18:25;;;;;;;4.04;3.84;;;;;;;11.59;80.98;100075.70;465183;113;922854;-78
2022/10/20 02:19:32;;;;;;;3.95;3.72;;;;;;;11.60;80.90;100074.65;465235;114;922667;-78
2022/10/20 02:20:36;;;;;;;4.38;3.99;;;;;;;11.60;80.80;100074.65;465231;114;922463;-77
2022/10/20 02:21:39;;;;;;;4.76;4.42;;;;;;;11.58;80.66;100076.77;465396;114;922903;-75
2022/10/20 02:22:43;;;;;;;4.39;4.09;;;;;;;11.57;80.67;100079.75;465423;114;922526;-76
2022/10/20 02:23:48;;;;;;;4.77;4.39;;;;;;;11.53;80.68;100070.34;465321;113;922443;-77
2022/10/20 02:24:51;;;;;;;4.38;4.08;;;;;;;11.52;80.62;100065.97;465125;114;930957;-76
2022/10/20 02:25:55;;;;;;;4.76;4.42;;;;;;;11.50;80.64;100065.36;465394;114;922831;-77
2022/10/20 02:27:02;;;;;;;4.70;4.39;;;;;;;11.48;80.61;100070.21;465332;114;922875;-77
2022/10/20 02:28:08;;;;;;;4.46;4.11;;;;;;;11.47;80.64;100068.54;465183;114;922523;-77
2022/10/20 02:29:17;;;;;;;4.71;4.31;;;;;;;11.47;80.73;100071.27;465226;113;922475;-76
2022/10/20 02:30:21;;;;;;;5.18;4.79;;;;;;;11.46;80.75;100070.47;461573;114;923035;-76
2022/10/20 02:31:24;;;;;;;5.32;4.99;;;;;;;11.47;80.75;100063.91;460543;114;922514;-77
2022/10/20 02:32:29;;;;;;;5.54;5.07;;;;;;;11.46;80.73;100056.82;465304;114;923056;-77
2022/10/20 02:33:33;;;;;;;5.74;5.35;;;;;;;11.47;80.80;100063.91;465154;113;931030;-76
2022/10/20 02:34:36;;;;;;;5.19;4.79;;;;;;;11.48;80.79;100062.02;471246;112;922564;-76
2022/10/20 02:35:44;;;;;;;5.62;5.22;;;;;;;11.47;80.83;100057.63;471188;112;930460;-75
2022/10/20 02:36:47;;;;;;;5.87;5.38;;;;;;;11.47;80.91;100055.73;471344;112;922412;-76
2022/10/20 02:37:50;;;;;;;6.35;5.84;;;;;;;11.48;80.95;100064.75;471856;112;922484;-77
2022/10/20 02:38:53;;;;;;;5.52;5.11;;;;;;;11.48;80.86;100056.56;471845;112;922627;-77
2022/10/20 02:39:56;;;;;;;5.84;5.46;;;;;;;11.47;80.91;100058.45;471834;112;923018;-76
2022/10/20 02:40:59;;;;;;;5.44;5.14;;;;;;;11.47;80.87;100061.19;471892;112;922555;-76
2022/10/20 02:42:02;;;;;;;5.79;5.39;;;;;;;11.47;80.87;100057.63;471930;112;922432;-76
2022/10/20 02:43:05;;;;;;;5.71;5.37;;;;;;;11.45;80.85;100055.15;471938;112;922495;-76
2022/10/20 02:44:08;;;;;;;5.91;5.59;;;;;;;11.46;80.89;100061.45;471899;112;922791;-76
2022/10/20 02:45:11;;;;;;;6.47;6.03;;;;;;;11.44;80.90;100050.75;471954;112;923528;-76
2022/10/20 02:46:15;;;;;;;7.20;6.63;;;;;;;11.45;80.99;100057.05;471878;112;922845;-76
2022/10/20 02:47:19;;;;;;;6.14;5.74;;;;;;;11.43;80.99;100054.54;471843;112;922435;-76
2022/10/20 02:48:22;;;;;;;6.25;5.86;;;;;;;11.43;80.93;100050.97;471810;112;922383;-76
2022/10/20 02:49:26;;;;;;;6.44;5.96;;;;;;;11.43;80.96;100061.89;471925;112;922529;-77
2022/10/20 02:50:29;;;;;;;6.56;6.06;;;;;;;11.42;80.96;100061.06;471891;112;922584;-77
2022/10/20 02:51:32;;;;;;;7.01;6.50;;;;;;;11.40;80.87;100056.91;470614;112;930544;-77
2022/10/20 02:52:36;;;;;;;6.34;5.84;;;;;;;11.40;80.92;100056.91;461215;115;922839;-77
2022/10/20 02:53:39;;;;;;;6.39;5.92;;;;;;;11.38;81.01;100053.57;460969;115;922714;-76
2022/10/20 02:54:42;;;;;;;6.97;6.47;;;;;;;11.38;80.98;100056.30;461122;115;922535;-77
2022/10/20 02:55:45;;;;;;;6.28;5.78;;;;;;;11.38;81.03;100054.41;461176;115;922803;-76
2022/10/20 02:56:48;;;;;;;6.69;6.19;;;;;;;11.38;81.04;100057.13;461222;115;923012;-77
2022/10/20 02:57:52;;;;;;;7.29;6.77;;;;;;;11.39;81.10;100047.05;461141;115;923500;-76
2022/10/20 02:58:55;;;;;;;6.92;6.37;;;;;;;11.39;81.06;100047.89;461084;115;922671;-77
2022/10/20 02:59:58;;;;;;;6.23;5.81;;;;;;;11.38;81.03;100043.48;461212;115;922489;-76
2022/10/20 03:01:01;;;;;;;6.08;5.58;;;;;;;11.39;81.13;100047.05;461165;115;922937;-77
2022/10/20 03:02:04;;;;;;;7.09;6.59;;;;;;;11.39;81.08;100049.78;461158;115;922990;-77
2022/10/20 03:03:08;;;;;;;7.01;6.53;;;;;;;11.39;81.12;100039.70;461083;115;923546;-77
2022/10/20 03:04:12;;;;;;;6.77;6.34;;;;;;;11.40;81.11;100044.10;461051;115;930576;-76
2022/10/20 03:05:15;;;;;;;7.74;7.24;;;;;;;11.40;81.12;100046.83;461089;115;922987;-76
2022/10/20 03:06:18;;;;;;;7.12;6.48;;;;;;;11.42;81.17;100043.84;461192;115;922734;-75
2022/10/20 03:07:21;;;;;;;7.70;7.13;;;;;;;11.41;81.08;100034.82;452142;117;922652;-78
2022/10/20 03:08:23;;;;;;;7.16;6.66;;;;;;;11.41;81.10;100037.55;452437;115;922619;-76
2022/10/20 03:09:26;;;;;;;6.74;6.31;;;;;;;11.42;81.15;100035.66;461184;115;923062;-75
2022/10/20 03:10:29;;;;;;;7.14;6.72;;;;;;;11.41;81.13;100034.82;461185;115;922540;-78
2022/10/20 03:11:32;;;;;;;6.89;6.39;;;;;;;11.43;81.16;100029.14;461159;115;922465;-77
2022/10/20 03:12:35;;;;;;;6.90;6.50;;;;;;;11.43;81.10;100029.14;461220;115;923072;-76
2022/10/20 03:13:38;;;;;;;6.94;6.46;;;;;;;11.44;81.13;100028.08;461217;115;922467;-76
2022/10/20 03:14:41;;;;;;;7.24;6.74;;;;;;;11.44;81.11;100028.91;461161;115;922563;-76
2022/10/20 03:15:45;;;;;;;7.19;6.65;;;;;;;11.45;81.15;100027.84;461233;114;922372;-76
2022/10/20 03:16:48;;;;;;;7.06;6.59;;;;;;;11.45;81.13;100036.04;465478;114;922570;-76
2022/10/20 03:17:51;;;;;;;7.54;7.01;;;;;;;11.46;81.17;100034.98;465492;114;922707;-77
2022/10/20 03:18:54;;;;;;;7.06;6.53;;;;;;;11.47;81.18;100030.32;465401;113;923016;-76
2022/10/20 03:19:58;;;;;;;7.61;7.06;;;;;;;11.47;81.13;100028.42;464677;114;923591;-76
2022/10/20 03:21:02;;;;;;;7.72;7.07;;;;;;;11.48;81.11;100029.27;465372;114;922524;-76
2022/10/20 03:22:04;;;;;;;7.45;6.91;;;;;;;11.48;81.09;100018.34;465366;114;923237;-77
2022/10/20 03:23:07;;;;;;;7.04;6.54;;;;;;;11.49;81.03;100026.30;465397;114;922489;-76
2022/10/20 03:24:10;;;;;;;7.12;6.62;;;;;;;11.50;81.03;100024.41;465333;113;923064;-76
2022/10/20 03:25:13;;;;;;;7.21;6.61;;;;;;;11.50;81.02;100019.78;465325;114;922608;-76
2022/10/20 03:26:16;;;;;;;7.14;6.64;;;;;;;11.52;81.04;100025.02;465306;114;922877;-76
2022/10/20 03:27:19;;;;;;;7.36;6.95;;;;;;;11.51;81.05;100010.53;465400;114;922458;-75
2022/10/20 03:28:22;;;;;;;6.74;6.26;;;;;;;11.52;81.07;100009.44;465345;113;922475;-76
2022/10/20 03:29:25;;;;;;;7.29;6.79;;;;;;;11.53;81.10;100005.66;465421;114;922494;-77
2022/10/20 03:30:28;;;;;;;7.83;7.28;;;;;;;11.53;81.11;100011.11;458497;114;922975;-76
2022/10/20 03:31:31;;;;;;;7.51;6.88;;;;;;;11.55;81.15;100005.42;458683;114;922672;-76
2022/10/20 03:32:34;;;;;;;8.83;8.09;;;;;;;11.57;81.23;100006.87;465418;114;922991;-75
2022/10/20 03:33:37;;;;;;;7.82;7.32;;;;;;;11.58;81.21;100003.05;464784;113;922818;-76
2022/10/20 03:34:40;;;;;;;7.10;6.69;;;;;;;11.59;81.17;100004.72;457335;116;922974;-75
2022/10/20 03:35:43;;;;;;;7.49;6.99;;;;;;;11.60;81.16;100005.55;457368;116;923034;-76
2022/10/20 03:36:46;;;;;;;8.13;7.53;;;;;;;11.62;81.12;100006.16;450313;116;923147;-77
2022/10/20 03:37:49;;;;;;;7.74;7.14;;;;;;;11.62;81.13;100000.70;448469;118;923003;-77
2022/10/20 03:38:51;;;;;;;7.63;7.07;;;;;;;11.62;81.01;100009.72;448449;118;923066;-77
2022/10/20 03:39:54;;;;;;;7.40;6.91;;;;;;;11.61;80.89;100004.48;448483;118;923053;-76
2022/10/20 03:40:57;;;;;;;6.98;6.47;;;;;;;11.60;80.83;100008.28;448488;118;923127;-77
2022/10/20 03:42:00;;;;;;;8.04;7.41;;;;;;;11.60;80.77;100011.01;448448;118;923740;-76
2022/10/20 03:43:03;;;;;;;7.47;6.97;;;;;;;11.57;80.62;100006.87;448422;118;922612;-76
2022/10/20 03:44:06;;;;;;;7.58;7.08;;;;;;;11.55;80.62;100006.27;448445;118;923056;-76
2022/10/20 03:45:09;;;;;;;8.16;7.58;;;;;;;11.53;80.58;100002.92;448457;118;922982;-76
2022/10/20 03:46:14;;;;;;;8.12;7.62;;;;;;;11.52;80.65;100005.91;447872;118;922535;-76
2022/10/20 03:47:17;;;;;;;7.29;6.79;;;;;;;11.52;80.66;99994.98;448483;118;922532;-76
2022/10/20 03:48:20;;;;;;;8.22;7.65;;;;;;;11.50;80.74;99997.95;448487;118;922529;-76
2022/10/20 03:49:23;;;;;;;7.88;7.38;;;;;;;11.51;80.79;99996.05;448447;118;923041;-77
2022/10/20 03:50:26;;;;;;;7.51;6.97;;;;;;;11.50;80.79;99991.65;448493;118;922601;-76
2022/10/20 03:51:29;;;;;;;8.12;7.53;;;;;;;11.50;80.77;99991.65;448801;117;922746;-77
2022/10/20 03:52:32;;;;;;;8.63;8.03;;;;;;;11.50;80.72;99994.37;445433;119;923592;-76
2022/10/20 03:53:35;;;;;;;8.14;7.64;;;;;;;11.49;80.76;99996.27;445779;117;923008;-76
2022/10/20 03:54:39;;;;;;;8.84;8.28;;;;;;;11.49;80.71;99993.55;453720;117;923044;-76
2022/10/20 03:55:42;;;;;;;8.50;7.90;;;;;;;11.48;80.71;100000.06;453633;117;922504;-76
2022/10/20 03:56:45;;;;;;;8.74;8.19;;;;;;;11.47;80.72;99998.40;453655;117;930463;-76
2022/10/20 03:57:48;;;;;;;7.85;7.29;;;;;;;11.48;80.75;99993.77;453807;117;922695;-76
2022/10/20 03:58:51;;;;;;;9.04;8.45;;;;;;;11.48;80.76;99993.77;453773;117;923039;-76
2022/10/20 03:59:54;;;;;;;8.39;7.79;;;;;;;11.47;80.75;99992.94;453746;117;922941;-77
2022/10/20 04:00:57;;;;;;;8.76;8.14;;;;;;;11.46;80.73;99983.11;453727;117;922860;-76
2022/10/20 04:02:00;;;;;;;8.70;8.06;;;;;;;11.46;80.75;99980.38;453723;117;923062;-77
2022/10/20 04:03:03;;;;;;;7.80;6.97;;;;;;;11.46;80.76;99980.38;453756;117;923129;-78
2022/10/20 04:04:06;;;;;;;8.41;7.87;;;;;;;11.46;80.79;99979.55;453785;117;923011;-77
2022/10/20 04:05:12;;;;;;;8.26;7.71;;;;;;;11.46;80.82;99976.81;453755;117;923109;-77
2022/10/20 04:06:15;;;;;;;9.19;8.54;;;;;;;11.46;80.89;99980.38;453539;117;923064;-77
2022/10/20 04:07:18;;;;;;;8.35;7.85;;;;;;;11.47;80.93;99982.02;453768;117;922474;-78
2022/10/20 04:08:21;;;;;;;9.14;7.83;;;;;;;11.47;80.89;99982.02;453728;117;922935;-78
2022/10/20 04:09:24;;;;;;;8.47;7.84;;;;;;;11.48;80.85;99983.69;453733;117;922566;-76
2022/10/20 04:10:27;;;;;;;7.78;7.22;;;;;;;11.48;80.83;99980.95;453747;117;922552;-76
2022/10/20 04:11:30;;;;;;;8.48;7.88;;;;;;;11.48;80.79;99980.95;445445;119;922656;-76
2022/10/20 04:12:34;;;;;;;8.58;7.97;;;;;;;11.48;80.76;99983.69;445693;117;922949;-77
2022/10/20 04:13:37;;;;;;;8.58;7.95;;;;;;;11.48;80.73;99985.58;453535;117;930405;-77
2022/10/20 04:14:40;;;;;;;9.53;8.93;;;;;;;11.47;80.72;99986.64;453661;117;930511;-76
2022/10/20 04:15:43;;;;;;;9.46;8.73;;;;;;;11.47;80.72;99987.48;453686;117;923283;-76
2022/10/20 04:16:46;;;;;;;8.33;7.73;;;;;;;11.48;80.67;99988.31;461612;115;922760;-76
2022/10/20 04:17:49;;;;;;;9.29;8.59;;;;;;;11.47;80.64;99986.64;461649;115;922552;-77
2022/10/20 04:18:52;;;;;;;9.34;8.74;;;;;;;11.47;80.62;99990.20;461702;115;922561;-77
2022/10/20 04:19:56;;;;;;;9.65;9.05;;;;;;;11.46;80.71;99983.11;461617;115;922466;-76
2022/10/20 04:20:59;;;;;;;8.52;7.92;;;;;;;11.47;80.65;99992.94;461585;115;923227;-77
2022/10/20 04:22:02;;;;;;;8.64;8.11;;;;;;;11.47;80.52;99987.48;461657;115;923069;-76
2022/10/20 04:23:05;;;;;;;8.77;8.26;;;;;;;11.46;80.49;99991.30;461713;115;922494;-76
2022/10/20 04:24:08;;;;;;;8.84;8.25;;;;;;;11.46;80.43;99990.47;461706;115;922473;-76
2022/10/20 04:25:11;;;;;;;10.23;9.42;;;;;;;11.47;80.48;99994.83;461697;115;922891;-76
2022/10/20 04:26:15;;;;;;;8.98;8.38;;;;;;;11.46;80.47;99990.47;461673;115;922496;-76
2022/10/20 04:27:18;;;;;;;9.46;8.78;;;;;;;11.47;80.57;99986.64;461607;115;922488;-76
2022/10/20 04:28:20;;;;;;;8.92;8.39;;;;;;;11.47;80.56;99989.38;461601;115;930703;-76
2022/10/20 04:29:24;;;;;;;8.67;8.13;;;;;;;11.47;80.59;99994.83;461640;115;923483;-76
2022/10/20 04:30:26;;;;;;;9.07;8.48;;;;;;;11.47;80.61;99997.56;454681;115;922568;-77
2022/10/20 04:31:29;;;;;;;8.83;8.12;;;;;;;11.48;80.61;99991.05;454435;115;922467;-77
2022/10/20 04:32:32;;;;;;;8.75;8.06;;;;;;;11.48;80.67;99993.77;461654;115;923149;-76
2022/10/20 04:33:35;;;;;;;8.93;8.31;;;;;;;11.50;80.68;99991.65;461263;115;922508;-77
2022/10/20 04:34:38;;;;;;;8.66;8.06;;;;;;;11.50;80.72;99992.48;453548;117;922375;-77
2022/10/20 04:35:41;;;;;;;8.77;8.06;;;;;;;11.53;80.76;100002.92;453556;117;923074;-76
2022/10/20 04:36:44;;;;;;;9.62;8.99;;;;;;;11.54;80.71;99992.84;456117;114;923492;-76
2022/10/20 04:37:47;;;;;;;8.69;8.14;;;;;;;11.55;80.71;99986.31;461127;115;922524;-76
2022/10/20 04:38:50;;;;;;;9.25;8.56;;;;;;;11.55;80.65;100000.80;461111;115;922571;-77
2022/10/20 04:39:56;;;;;;;9.71;9.02;;;;;;;11.55;80.57;99989.05;461177;115;923005;-78
2022/10/20 04:41:00;;;;;;;9.83;8.96;;;;;;;11.57;80.58;99995.11;460965;115;922532;-76
2022/10/20 04:42:05;;;;;;;9.59;8.92;;;;;;;11.57;80.44;99997.84;460787;115;923033;-76
2022/10/20 04:43:08;;;;;;;9.32;8.71;;;;;;;11.57;80.36;99992.38;461150;115;922499;-76
2022/10/20 04:44:10;;;;;;;8.99;8.39;;;;;;;11.55;80.36;100000.80;461071;115;922900;-76
2022/10/20 04:45:13;;;;;;;9.09;8.43;;;;;;;11.56;80.28;100002.47;461180;115;922980;-76
2022/10/20 04:46:18;;;;;;;9.48;8.78;;;;;;;11.55;80.28;100005.42;461043;115;922514;-76
2022/10/20 04:47:21;;;;;;;9.26;8.66;;;;;;;11.53;80.23;99993.89;461068;115;922967;-77
2022/10/20 04:48:24;;;;;;;10.03;9.33;;;;;;;11.52;80.20;100003.18;461161;115;922531;-76
2022/10/20 04:49:27;;;;;;;9.78;9.13;;;;;;;11.52;80.22;100005.91;461215;115;922483;-77
2022/10/20 04:50:30;;;;;;;10.15;9.45;;;;;;;11.51;80.22;100001.52;461190;115;922456;-77
2022/10/20 04:51:37;;;;;;;10.21;9.53;;;;;;;11.50;80.26;99999.84;460771;114;922596;-76
2022/10/20 04:52:40;;;;;;;9.40;8.79;;;;;;;11.48;80.26;100002.80;463138;114;922593;-77
2022/10/20 04:53:43;;;;;;;10.67;9.87;;;;;;;11.48;80.29;99993.77;463098;114;923057;-77
2022/10/20 04:54:46;;;;;;;9.84;9.19;;;;;;;11.47;80.22;100003.02;463083;114;922927;-75
2022/10/20 04:55:56;;;;;;;10.35;9.64;;;;;;;11.46;80.19;100002.22;463044;114;922568;-77
2022/10/20 04:56:59;;;;;;;9.89;9.30;;;;;;;11.45;80.24;99997.82;463182;114;922979;-76
2022/10/20 04:58:02;;;;;;;9.94;9.27;;;;;;;11.44;80.30;100000.78;463080;114;922594;-76
2022/10/20 04:59:05;;;;;;;10.36;9.54;;;;;;;11.42;80.34;99995.55;463030;114;923036;-77
2022/10/20 05:00:11;;;;;;;9.54;8.82;;;;;;;11.42;80.36;99995.55;462191;114;922704;-77
2022/10/20 05:01:13;;;;;;;9.63;8.93;;;;;;;11.43;80.41;100001.84;462920;114;922492;-76
2022/10/20 05:02:16;;;;;;;9.84;9.24;;;;;;;11.43;80.38;100004.56;462929;114;930509;-76
2022/10/20 05:03:20;;;;;;;9.51;8.83;;;;;;;11.43;80.45;100004.56;463025;114;922904;-76